createdAt,value
2017-12-23T00:00:29.234Z,9.30
2017-12-23T00:02:56.672Z,9.30
2017-12-23T00:05:24.158Z,9.30
2017-12-23T00:07:51.632Z,9.30
2017-12-23T00:10:19.866Z,9.30
2017-12-23T00:12:47.302Z,9.30
2017-12-23T00:15:14.773Z,9.30
2017-12-23T00:17:42.236Z,9.30
2017-12-23T00:20:09.701Z,9.30
2017-12-23T00:22:37.164Z,9.30
2017-12-23T00:25:05.362Z,9.30
2017-12-23T00:27:32.806Z,9.30
2017-12-23T00:30:00.287Z,9.30
2017-12-23T00:32:27.719Z,9.30
2017-12-23T00:34:55.154Z,9.30
2017-12-23T00:37:23.359Z,9.30
2017-12-23T00:39:50.786Z,9.20
2017-12-23T00:42:19.002Z,9.30
2017-12-23T00:44:46.446Z,9.30
2017-12-23T00:47:13.889Z,9.30
2017-12-23T00:49:42.102Z,9.30
2017-12-23T00:52:09.542Z,9.30
2017-12-23T00:54:36.987Z,9.30
2017-12-23T00:57:05.185Z,9.30
2017-12-23T00:59:32.630Z,9.30
2017-12-23T01:02:00.074Z,9.30
2017-12-23T01:04:28.286Z,9.30
2017-12-23T01:06:55.732Z,9.30
2017-12-23T01:09:23.165Z,9.40
2017-12-23T01:11:51.375Z,9.40
2017-12-23T01:14:18.806Z,9.40
2017-12-23T01:16:46.240Z,9.40
2017-12-23T01:19:14.442Z,9.40
2017-12-23T01:21:41.878Z,9.40
2017-12-23T01:24:10.097Z,9.40
2017-12-23T01:26:37.547Z,9.50
2017-12-23T01:29:04.991Z,9.40
2017-12-23T01:31:32.426Z,9.40
2017-12-23T01:34:00.630Z,9.40
2017-12-23T01:36:28.076Z,9.30
2017-12-23T01:38:55.537Z,9.30
2017-12-23T01:41:22.967Z,9.30
2017-12-23T01:43:50.402Z,9.30
2017-12-23T01:46:17.840Z,9.30
2017-12-23T01:48:45.287Z,9.20
2017-12-23T01:51:12.741Z,9.20
2017-12-23T01:53:40.183Z,9.20
2017-12-23T01:56:07.615Z,9.20
2017-12-23T01:58:35.820Z,9.10
2017-12-23T02:01:03.262Z,9.10
2017-12-23T02:03:30.700Z,9.00
2017-12-23T02:05:58.908Z,9.00
2017-12-23T02:08:26.347Z,9.00
2017-12-23T02:10:53.774Z,9.10
2017-12-23T02:13:21.210Z,9.00
2017-12-23T02:15:48.642Z,9.10
2017-12-23T02:18:16.084Z,9.20
2017-12-23T02:20:43.511Z,9.20
2017-12-23T02:23:11.710Z,9.20
2017-12-23T02:25:39.138Z,9.20
2017-12-23T02:28:07.383Z,9.20
2017-12-23T02:30:34.828Z,9.20
2017-12-23T02:33:02.269Z,9.20
2017-12-23T02:35:29.716Z,9.20
2017-12-23T02:37:57.148Z,9.20
2017-12-23T02:40:25.360Z,9.20
2017-12-23T02:42:52.791Z,9.20
2017-12-23T02:45:20.240Z,9.20
2017-12-23T02:47:47.680Z,9.20
2017-12-23T02:50:15.107Z,9.30
2017-12-23T02:52:42.550Z,9.20
2017-12-23T02:55:09.992Z,9.10
2017-12-23T02:57:37.441Z,9.10
2017-12-23T03:00:04.879Z,9.20
2017-12-23T03:02:32.323Z,9.10
2017-12-23T03:05:00.533Z,9.10
2017-12-23T03:07:27.963Z,9.10
2017-12-23T03:09:56.163Z,9.10
2017-12-23T03:12:23.600Z,9.10
2017-12-23T03:14:51.047Z,9.10
2017-12-23T03:17:19.260Z,9.10
2017-12-23T03:19:46.695Z,9.00
2017-12-23T03:22:14.135Z,9.10
2017-12-23T03:24:42.338Z,9.00
2017-12-23T03:27:09.780Z,9.00
2017-12-23T03:29:37.216Z,9.00
2017-12-23T03:32:05.418Z,8.90
2017-12-23T03:34:32.850Z,8.90
2017-12-23T03:37:00.299Z,8.90
2017-12-23T03:39:27.785Z,8.90
2017-12-23T03:41:55.166Z,8.90
2017-12-23T03:44:22.595Z,8.90
2017-12-23T03:46:50.031Z,8.90
2017-12-23T03:49:17.471Z,8.90
2017-12-23T03:51:45.680Z,8.90
2017-12-23T03:54:13.111Z,8.90
2017-12-23T03:56:41.373Z,8.90
2017-12-23T03:59:08.740Z,8.90
2017-12-23T04:01:36.945Z,8.90
2017-12-23T04:06:38.403Z,8.90
2017-12-23T04:09:05.842Z,8.90
2017-12-23T04:11:33.292Z,8.90
2017-12-23T04:14:01.493Z,8.80
2017-12-23T04:16:28.930Z,8.80
2017-12-23T04:18:56.366Z,8.80
2017-12-23T04:21:24.572Z,8.80
2017-12-23T04:23:52.007Z,8.80
2017-12-23T04:26:19.450Z,8.80
2017-12-23T04:28:47.655Z,8.70
2017-12-23T04:31:15.098Z,8.70
2017-12-23T04:33:42.534Z,8.70
2017-12-23T04:36:10.747Z,8.70
2017-12-23T04:38:38.181Z,8.70
2017-12-23T04:41:05.633Z,8.70
2017-12-23T04:43:34.282Z,8.70
2017-12-23T04:46:01.724Z,8.70
2017-12-23T04:48:29.213Z,8.80
2017-12-23T04:50:56.604Z,8.80
2017-12-23T04:53:24.032Z,8.80
2017-12-23T04:55:52.249Z,8.80
2017-12-23T04:58:19.694Z,8.80
2017-12-23T05:00:47.122Z,8.80
2017-12-23T05:03:14.567Z,8.80
2017-12-23T05:05:42.766Z,8.80
2017-12-23T05:08:10.212Z,8.80
2017-12-23T05:10:37.689Z,8.80
2017-12-23T05:13:05.118Z,8.70
2017-12-23T05:15:33.330Z,8.80
2017-12-23T05:18:00.769Z,8.80
2017-12-23T05:20:28.214Z,8.80
2017-12-23T05:22:55.666Z,8.80
2017-12-23T05:25:23.111Z,8.80
2017-12-23T05:27:51.324Z,8.80
2017-12-23T05:30:18.755Z,8.80
2017-12-23T05:32:46.215Z,8.80
2017-12-23T05:35:14.419Z,8.80
2017-12-23T05:37:41.867Z,8.80
2017-12-23T05:40:09.294Z,8.90
2017-12-23T05:42:36.734Z,8.80
2017-12-23T05:45:04.942Z,8.90
2017-12-23T05:47:32.382Z,8.90
2017-12-23T05:49:59.826Z,8.80
2017-12-23T05:52:28.034Z,8.80
2017-12-23T05:54:55.471Z,8.80
2017-12-23T05:57:22.914Z,8.80
2017-12-23T05:59:51.114Z,8.90
2017-12-23T06:02:18.581Z,8.90
2017-12-23T06:04:46.023Z,8.90
2017-12-23T06:07:13.460Z,9.00
2017-12-23T06:09:40.902Z,9.00
2017-12-23T06:12:09.107Z,8.90
2017-12-23T06:14:36.538Z,8.90
2017-12-23T06:17:04.742Z,8.80
2017-12-23T06:19:32.192Z,8.80
2017-12-23T06:21:59.631Z,8.80
2017-12-23T06:24:27.843Z,8.80
2017-12-23T06:26:55.274Z,8.80
2017-12-23T06:29:22.720Z,8.80
2017-12-23T06:31:50.147Z,8.80
2017-12-23T06:34:17.589Z,8.80
2017-12-23T06:36:45.017Z,8.90
2017-12-23T06:39:12.456Z,8.90
2017-12-23T06:41:39.898Z,8.90
2017-12-23T06:44:08.109Z,8.90
2017-12-23T06:46:35.539Z,8.90
2017-12-23T06:49:02.983Z,8.90
2017-12-23T06:51:31.218Z,8.80
2017-12-23T06:53:58.648Z,8.80
2017-12-23T06:56:26.092Z,8.80
2017-12-23T06:58:53.527Z,8.90
2017-12-23T07:01:21.831Z,8.90
2017-12-23T07:03:49.247Z,8.90
2017-12-23T07:06:17.456Z,9.00
2017-12-23T07:08:44.895Z,9.00
2017-12-23T07:11:12.344Z,9.00
2017-12-23T07:13:40.560Z,9.00
2017-12-23T07:16:07.990Z,9.00
2017-12-23T07:18:35.437Z,9.00
2017-12-23T07:21:03.639Z,9.00
2017-12-23T07:23:31.090Z,9.00
2017-12-23T07:25:58.531Z,9.00
2017-12-23T07:28:25.971Z,9.00
2017-12-23T07:30:54.188Z,9.00
2017-12-23T07:33:21.626Z,9.00
2017-12-23T07:35:49.067Z,9.10
2017-12-23T07:38:16.504Z,9.10
2017-12-23T07:40:44.715Z,9.10
2017-12-23T07:43:12.156Z,9.10
2017-12-23T07:45:39.594Z,9.10
2017-12-23T07:48:07.807Z,9.20
2017-12-23T07:50:35.259Z,9.20
2017-12-23T07:53:02.835Z,9.20
2017-12-23T07:55:30.280Z,9.20
2017-12-23T07:57:57.748Z,9.20
2017-12-23T08:00:25.923Z,9.20
2017-12-23T08:02:53.363Z,9.20
2017-12-23T08:05:20.813Z,9.20
2017-12-23T08:07:48.246Z,9.20
2017-12-23T08:10:16.468Z,9.20
2017-12-23T08:12:43.919Z,9.20
2017-12-23T08:15:11.367Z,9.30
2017-12-23T08:17:38.819Z,9.30
2017-12-23T08:20:06.254Z,9.30
2017-12-23T08:22:34.459Z,9.30
2017-12-23T08:25:01.919Z,9.30
2017-12-23T08:27:29.371Z,9.30
2017-12-23T08:29:56.862Z,9.40
2017-12-23T08:32:24.298Z,9.40
2017-12-23T08:34:51.754Z,9.40
2017-12-23T08:37:19.198Z,9.40
2017-12-23T08:39:46.651Z,9.50
2017-12-23T08:42:14.099Z,9.50
2017-12-23T08:44:41.536Z,9.60
2017-12-23T08:47:09.733Z,9.60
2017-12-23T08:49:37.175Z,9.60
2017-12-23T08:52:04.609Z,9.60
2017-12-23T08:54:32.827Z,9.70
2017-12-23T08:57:00.268Z,9.60
2017-12-23T08:59:27.701Z,9.70
2017-12-23T09:01:55.913Z,9.60
2017-12-23T09:04:23.347Z,9.50
2017-12-23T09:06:50.795Z,9.50
2017-12-23T09:09:18.999Z,9.50
2017-12-23T09:11:46.430Z,9.50
2017-12-23T09:14:13.866Z,9.50
2017-12-23T09:16:41.359Z,9.50
2017-12-23T09:19:08.795Z,9.50
2017-12-23T09:21:37.002Z,9.50
2017-12-23T09:24:04.430Z,9.50
2017-12-23T09:26:32.635Z,9.60
2017-12-23T09:29:00.067Z,9.60
2017-12-23T09:31:27.502Z,9.50
2017-12-23T09:33:55.714Z,9.60
2017-12-23T09:36:23.185Z,9.60
2017-12-23T09:38:50.663Z,9.60
2017-12-23T09:41:18.105Z,9.70
2017-12-23T09:43:45.543Z,9.70
2017-12-23T09:46:12.990Z,9.60
2017-12-23T09:48:40.427Z,9.70
2017-12-23T09:51:08.631Z,9.80
2017-12-23T09:53:36.066Z,9.80
2017-12-23T09:56:03.507Z,9.80
2017-12-23T09:58:31.710Z,9.90
2017-12-23T10:00:59.142Z,9.90
2017-12-23T10:03:27.346Z,9.80
2017-12-23T10:05:54.778Z,9.80
2017-12-23T10:08:22.260Z,9.80
2017-12-23T10:10:49.674Z,9.80
2017-12-23T10:13:17.883Z,9.90
2017-12-23T10:15:45.315Z,9.90
2017-12-23T10:18:13.519Z,9.80
2017-12-23T10:20:40.956Z,9.80
2017-12-23T10:23:08.400Z,9.90
2017-12-23T10:25:36.594Z,9.80
2017-12-23T10:28:04.035Z,9.80
2017-12-23T10:30:32.247Z,9.80
2017-12-23T10:32:59.682Z,9.70
2017-12-23T10:35:27.134Z,9.80
2017-12-23T10:37:55.329Z,9.80
2017-12-23T10:40:22.758Z,9.80
2017-12-23T10:42:50.227Z,9.80
2017-12-23T10:45:18.415Z,9.60
2017-12-23T10:47:45.855Z,9.60
2017-12-23T10:50:13.291Z,9.60
2017-12-23T10:52:41.487Z,9.50
2017-12-23T10:55:08.927Z,9.50
2017-12-23T10:57:37.131Z,9.50
2017-12-23T11:00:04.562Z,9.50
2017-12-23T11:02:31.999Z,9.40
2017-12-23T11:05:00.199Z,9.30
2017-12-23T11:07:27.672Z,9.30
2017-12-23T11:09:55.086Z,9.30
2017-12-23T11:12:23.290Z,9.20
2017-12-23T11:14:50.735Z,9.20
2017-12-23T11:17:18.171Z,9.20
2017-12-23T11:19:46.375Z,9.30
2017-12-23T11:22:13.815Z,9.30
2017-12-23T11:24:42.035Z,9.30
2017-12-23T11:27:09.442Z,9.30
2017-12-23T11:29:37.750Z,9.30
2017-12-23T11:32:05.181Z,9.30
2017-12-23T11:34:33.378Z,9.40
2017-12-23T11:37:00.806Z,9.40
2017-12-23T11:39:29.015Z,9.40
2017-12-23T11:41:56.466Z,9.40
2017-12-23T11:44:23.922Z,9.40
2017-12-23T11:46:51.355Z,9.40
2017-12-23T11:49:18.795Z,9.40
2017-12-23T11:51:47.016Z,9.40
2017-12-23T11:54:14.443Z,9.40
2017-12-23T11:56:42.651Z,9.60
2017-12-23T11:59:10.256Z,9.60
2017-12-23T12:01:37.670Z,9.50
2017-12-23T12:04:05.107Z,9.60
2017-12-23T12:06:32.543Z,9.70
2017-12-23T12:08:59.985Z,9.80
2017-12-23T12:11:28.175Z,9.80
2017-12-23T12:13:55.615Z,9.80
2017-12-23T12:16:23.819Z,9.90
2017-12-23T12:18:51.268Z,9.90
2017-12-23T12:21:18.702Z,9.90
2017-12-23T12:23:46.127Z,9.90
2017-12-23T12:26:13.572Z,9.90
2017-12-23T12:28:41.006Z,10.00
2017-12-23T12:31:08.447Z,9.90
2017-12-23T12:33:35.873Z,9.80
2017-12-23T12:36:04.082Z,9.80
2017-12-23T12:38:31.532Z,9.80
2017-12-23T12:40:58.991Z,9.70
2017-12-23T12:43:26.431Z,9.70
2017-12-23T12:45:54.739Z,9.60
2017-12-23T12:48:22.158Z,9.60
2017-12-23T12:50:50.374Z,9.50
2017-12-23T12:53:17.806Z,9.50
2017-12-23T12:55:45.247Z,9.50
2017-12-23T12:58:13.465Z,9.60
2017-12-23T13:00:40.902Z,9.50
2017-12-23T13:03:08.342Z,9.60
2017-12-23T13:05:36.553Z,9.70
2017-12-23T13:08:03.979Z,9.70
2017-12-23T13:10:31.422Z,9.70
2017-12-23T13:12:59.619Z,9.70
2017-12-23T13:15:27.062Z,9.70
2017-12-23T13:17:55.255Z,9.80
2017-12-23T13:20:22.687Z,9.80
2017-12-23T13:22:50.887Z,9.80
2017-12-23T13:25:18.326Z,9.80
2017-12-23T13:27:45.758Z,9.80
2017-12-23T13:30:13.981Z,9.80
2017-12-23T13:32:41.411Z,9.80
2017-12-23T13:35:08.843Z,9.80
2017-12-23T13:37:36.306Z,9.80
2017-12-23T13:40:04.506Z,9.70
2017-12-23T13:42:31.944Z,9.70
2017-12-23T13:45:00.144Z,9.70
2017-12-23T13:47:27.586Z,9.70
2017-12-23T13:49:55.014Z,9.70
2017-12-23T13:52:23.223Z,9.70
2017-12-23T13:54:50.655Z,9.60
2017-12-23T13:57:18.867Z,9.70
2017-12-23T13:59:46.332Z,9.70
2017-12-23T14:02:13.763Z,9.70
2017-12-23T14:04:41.233Z,9.60
2017-12-23T14:07:08.658Z,9.60
2017-12-23T14:09:36.853Z,9.60
2017-12-23T14:12:04.287Z,9.60
2017-12-23T14:14:32.491Z,9.40
2017-12-23T14:16:59.927Z,9.40
2017-12-23T14:19:27.362Z,9.50
2017-12-23T14:21:54.794Z,9.40
2017-12-23T14:24:22.226Z,9.40
2017-12-23T14:26:49.663Z,9.40
2017-12-23T14:29:17.100Z,9.30
2017-12-23T14:31:45.306Z,9.30
2017-12-23T14:34:12.735Z,9.30
2017-12-23T14:36:40.182Z,9.40
2017-12-23T14:39:08.382Z,9.30
2017-12-23T14:41:35.823Z,9.30
2017-12-23T14:44:03.305Z,9.30
2017-12-23T14:46:30.734Z,9.30
2017-12-23T14:48:58.182Z,9.20
2017-12-23T14:51:26.378Z,9.20
2017-12-23T14:53:53.816Z,9.20
2017-12-23T14:56:22.015Z,9.10
2017-12-23T14:58:49.454Z,9.10
2017-12-23T15:01:16.888Z,9.20
2017-12-23T15:03:44.363Z,9.20
2017-12-23T15:06:12.594Z,9.30
2017-12-23T15:08:40.022Z,9.20
2017-12-23T15:11:07.454Z,9.20
2017-12-23T15:13:35.574Z,9.20
2017-12-23T15:16:03.057Z,9.10
2017-12-23T15:18:30.516Z,9.10
2017-12-23T15:20:57.936Z,9.10
2017-12-23T15:23:25.383Z,9.10
2017-12-23T15:25:52.810Z,9.20
2017-12-23T15:28:20.248Z,9.20
2017-12-23T15:30:48.442Z,9.20
2017-12-23T15:33:15.888Z,9.20
2017-12-23T15:35:44.087Z,9.20
2017-12-23T15:38:11.526Z,9.20
2017-12-23T15:40:38.951Z,9.10
2017-12-23T15:43:06.390Z,9.20
2017-12-23T15:45:33.860Z,9.20
2017-12-23T15:48:01.287Z,9.20
2017-12-23T15:50:28.721Z,9.20
2017-12-23T15:52:56.196Z,9.10
2017-12-23T15:55:23.624Z,9.10
2017-12-23T15:57:51.109Z,9.10
2017-12-23T16:00:18.543Z,9.20
2017-12-23T16:02:46.004Z,9.20
2017-12-23T16:05:13.442Z,9.20
2017-12-23T16:07:40.874Z,9.20
2017-12-23T16:10:08.319Z,9.20
2017-12-23T16:12:35.756Z,9.20
2017-12-23T16:15:03.210Z,9.20
2017-12-23T16:17:30.709Z,9.20
2017-12-23T16:19:58.131Z,9.30
2017-12-23T16:22:25.558Z,9.20
2017-12-23T16:24:52.992Z,9.30
2017-12-23T16:27:20.433Z,9.30
2017-12-23T16:29:48.630Z,9.30
2017-12-23T16:32:16.109Z,9.30
2017-12-23T16:34:43.539Z,9.30
2017-12-23T16:37:11.036Z,9.30
2017-12-23T16:39:38.478Z,9.30
2017-12-23T16:42:05.938Z,9.40
2017-12-23T16:44:33.380Z,9.40
2017-12-23T16:47:00.815Z,9.30
2017-12-23T16:49:28.252Z,9.40
2017-12-23T16:51:55.729Z,9.40
2017-12-23T16:54:23.968Z,9.40
2017-12-23T16:56:51.434Z,9.30
2017-12-23T16:59:18.905Z,9.30
2017-12-23T17:01:46.323Z,9.40
2017-12-23T17:04:13.766Z,9.30
2017-12-23T17:06:41.204Z,9.30
2017-12-23T17:09:08.639Z,9.30
2017-12-23T17:11:36.839Z,9.20
2017-12-23T17:14:04.274Z,9.20
2017-12-23T17:16:31.864Z,9.20
2017-12-23T17:18:59.298Z,9.20
2017-12-23T17:21:26.781Z,9.20
2017-12-23T17:23:54.259Z,9.20
2017-12-23T17:26:21.692Z,9.20
2017-12-23T17:29:00.967Z,9.30
2017-12-23T17:31:28.480Z,9.30
2017-12-23T17:33:55.898Z,9.30
2017-12-23T17:36:24.111Z,9.30
2017-12-23T17:38:51.581Z,9.30
2017-12-23T17:41:19.007Z,9.30
2017-12-23T17:43:46.434Z,9.30
2017-12-23T17:46:14.695Z,9.40
2017-12-23T17:48:42.163Z,9.40
2017-12-23T17:51:09.647Z,9.40
2017-12-23T17:53:37.885Z,9.40
2017-12-23T17:56:05.319Z,9.40
2017-12-23T17:58:32.812Z,9.40
2017-12-23T18:01:00.239Z,9.40
2017-12-23T18:03:27.729Z,9.40
2017-12-23T18:05:55.171Z,9.40
2017-12-23T18:08:22.632Z,9.40
2017-12-23T18:10:50.071Z,9.40
2017-12-23T18:13:17.502Z,9.30
2017-12-23T18:15:44.985Z,9.30
2017-12-23T18:18:12.462Z,9.30
2017-12-23T18:20:39.938Z,9.30
2017-12-23T18:23:08.196Z,9.30
2017-12-23T18:25:35.627Z,9.30
2017-12-23T18:28:03.063Z,9.30
2017-12-23T18:30:31.319Z,9.40
2017-12-23T18:32:58.794Z,9.40
2017-12-23T18:35:26.234Z,9.40
2017-12-23T18:37:53.734Z,9.40
2017-12-23T18:40:21.235Z,9.30
2017-12-23T18:42:49.473Z,9.20
2017-12-23T18:45:16.966Z,9.20
2017-12-23T18:47:45.199Z,9.30
2017-12-23T18:50:12.638Z,9.20
2017-12-23T18:52:40.076Z,9.30
2017-12-23T18:55:07.560Z,9.30
2017-12-23T18:57:35.039Z,9.30
2017-12-23T19:00:02.531Z,9.30
2017-12-23T19:05:05.765Z,9.10
2017-12-23T19:07:33.247Z,9.20
2017-12-23T19:10:00.772Z,9.20
2017-12-23T19:12:28.194Z,9.30
2017-12-23T19:14:56.394Z,9.20
2017-12-23T19:17:23.891Z,9.20
2017-12-23T19:19:51.358Z,9.30
2017-12-23T19:22:18.820Z,9.30
2017-12-23T19:24:46.256Z,9.40
2017-12-23T19:27:13.740Z,9.40
2017-12-23T19:29:41.173Z,9.40
2017-12-23T19:32:08.662Z,9.40
2017-12-23T19:34:36.138Z,9.40
2017-12-23T19:37:04.332Z,9.40
2017-12-23T19:39:31.806Z,9.30
2017-12-23T19:41:59.277Z,9.30
2017-12-23T19:44:26.758Z,9.30
2017-12-23T19:46:54.238Z,9.30
2017-12-23T19:49:22.464Z,9.40
2017-12-23T19:51:49.964Z,9.30
2017-12-23T19:54:18.213Z,9.20
2017-12-23T19:56:45.751Z,9.20
2017-12-23T19:59:13.251Z,9.20
2017-12-23T20:01:41.493Z,9.30
2017-12-23T20:04:08.977Z,9.20
2017-12-23T20:06:36.463Z,9.20
2017-12-23T20:09:03.943Z,9.10
2017-12-23T20:11:31.470Z,9.20
2017-12-23T20:13:58.900Z,9.20
2017-12-23T20:16:26.373Z,9.10
2017-12-23T20:18:54.654Z,9.00
2017-12-23T20:21:22.886Z,9.00
2017-12-23T20:23:50.371Z,8.90
2017-12-23T20:26:17.845Z,9.00
2017-12-23T20:28:46.086Z,9.00
2017-12-23T20:31:13.558Z,9.00
2017-12-23T20:33:41.038Z,9.00
2017-12-23T20:36:09.290Z,9.00
2017-12-23T20:38:36.764Z,9.00
2017-12-23T20:41:04.991Z,9.00
2017-12-23T20:43:32.466Z,9.10
2017-12-23T20:45:59.944Z,9.10
2017-12-23T20:48:28.197Z,9.20
2017-12-23T20:50:55.670Z,9.20
2017-12-23T20:53:23.150Z,9.20
2017-12-23T20:55:50.626Z,9.30
2017-12-23T20:58:18.054Z,9.30
2017-12-23T21:00:45.535Z,9.30
2017-12-23T21:03:13.642Z,9.30
2017-12-23T21:08:32.232Z,9.40
2017-12-23T21:10:59.721Z,9.40
2017-12-23T21:13:27.192Z,9.40
2017-12-23T21:15:54.627Z,9.30
2017-12-23T21:18:22.067Z,9.30
2017-12-23T21:20:50.317Z,9.30
2017-12-23T21:23:17.744Z,9.30
2017-12-23T21:25:45.229Z,9.30
2017-12-23T21:28:12.745Z,9.30
2017-12-23T21:30:40.229Z,9.30
2017-12-23T21:33:07.734Z,9.30
2017-12-23T21:35:36.006Z,9.30
2017-12-23T21:38:04.240Z,9.40
2017-12-23T21:40:31.726Z,9.30
2017-12-23T21:42:59.197Z,9.30
2017-12-23T21:45:27.437Z,9.10
2017-12-23T21:47:54.914Z,9.10
2017-12-23T21:50:22.342Z,9.20
2017-12-23T21:52:49.830Z,9.20
2017-12-23T21:55:17.301Z,9.20
2017-12-23T21:57:45.546Z,9.10
2017-12-23T22:00:13.033Z,9.10
2017-12-23T22:02:41.278Z,9.10
2017-12-23T22:05:08.755Z,9.10
2017-12-23T22:07:36.201Z,9.10
2017-12-23T22:10:03.622Z,9.10
2017-12-23T22:12:31.113Z,9.10
2017-12-23T22:14:58.591Z,9.10
2017-12-23T22:17:26.834Z,9.10
2017-12-23T22:19:54.323Z,9.10
2017-12-23T22:22:22.570Z,9.10
2017-12-23T22:24:50.066Z,9.10
2017-12-23T22:27:17.515Z,9.10
2017-12-23T22:29:45.765Z,9.00
2017-12-23T22:32:13.239Z,9.00
2017-12-23T22:34:41.482Z,9.00
2017-12-23T22:37:08.974Z,8.90
2017-12-23T22:39:37.218Z,9.00
2017-12-23T22:42:04.700Z,8.90
2017-12-23T22:44:32.173Z,9.00
2017-12-23T22:47:00.438Z,9.00
2017-12-23T22:49:28.683Z,9.10
2017-12-23T22:51:56.214Z,9.10
2017-12-23T22:54:23.687Z,9.10
2017-12-23T22:56:51.161Z,9.10
2017-12-23T22:59:18.643Z,9.10
2017-12-23T23:04:38.440Z,8.90
2017-12-23T23:07:06.682Z,8.80
2017-12-23T23:09:34.380Z,8.80
2017-12-23T23:12:02.618Z,8.70
2017-12-23T23:14:30.039Z,8.70
2017-12-23T23:16:57.488Z,8.70
2017-12-23T23:19:24.975Z,8.70
2017-12-23T23:21:52.512Z,8.70
2017-12-23T23:24:19.950Z,8.70
2017-12-23T23:26:47.445Z,8.60
2017-12-23T23:29:14.905Z,8.70
2017-12-23T23:31:42.412Z,8.70
2017-12-23T23:34:10.665Z,8.70
2017-12-23T23:36:38.087Z,8.60
2017-12-23T23:39:05.528Z,8.60
2017-12-23T23:41:32.964Z,8.60
2017-12-23T23:44:01.380Z,8.70
2017-12-23T23:46:28.846Z,8.70
2017-12-23T23:48:56.266Z,8.80
2017-12-23T23:51:23.757Z,8.80
2017-12-23T23:53:51.182Z,8.70
2017-12-23T23:56:18.614Z,8.80
2017-12-23T23:58:46.862Z,8.80
